Aviation Digital Data Service (ADDS)

Output produced by METARs form (1139 UTC 18 September 2014)
found at http://aviationweather.gov/adds/metars/
 
KARA 181125Z 1812/1912 00000KT 3SM BR SCT002 BKN250 
     TEMPO 1812/1814 P6SM NSW SCT025 
     FM181400 08005KT P6SM SCT025 BKN250 
     FM181800 14005KT P6SM VCSH BKN050 
     FM190000 11004KT P6SM OVC050